sensor_id;sensor_type;location;lat;lon;timestamp;pressure;altitude;pressure_sealevel;temperature;humidity
26539;BME280;14205;43.200;24.170;2023-07-29T00:00:39;64444.88;;;-137.44;100.00
26539;BME280;14205;43.200;24.170;2023-07-29T00:03:05;68309.84;;;-137.44;100.00
26539;BME280;14205;43.200;24.170;2023-07-29T00:05:30;74502.88;;;-137.44;100.00
26539;BME280;14205;43.200;24.170;2023-07-29T00:07:56;83813.44;;;-137.44;100.00
26539;BME280;14205;43.200;24.170;2023-07-29T00:10:21;78120.66;;;-137.44;100.00
26539;BME280;14205;43.200;24.170;2023-07-29T00:12:47;87700.28;;;-137.44;100.00
26539;BME280;14205;43.200;24.170;2023-07-29T00:15:12;85108.56;;;-137.44;100.00
26539;BME280;14205;43.200;24.170;2023-07-29T00:17:38;80448.38;;;-137.44;100.00
26539;BME280;14205;43.200;24.170;2023-07-29T00:20:05;77086.63;;;-137.44;100.00
26539;BME280;14205;43.200;24.170;2023-07-29T00:22:30;72437.28;;;-137.44;100.00
26539;BME280;14205;43.200;24.170;2023-07-29T00:24:56;65990.34;;;-137.44;100.00
26539;BME280;14205;43.200;24.170;2023-07-29T00:27:23;62900.13;;;-137.44;100.00
26539;BME280;14205;43.200;24.170;2023-07-29T00:29:48;63929.88;;;-137.44;100.00
26539;BME280;14205;43.200;24.170;2023-07-29T00:32:14;65732.72;;;-137.44;100.00
26539;BME280;14205;43.200;24.170;2023-07-29T00:34:39;60023.69;;;-137.44;100.00
26539;BME280;14205;43.200;24.170;2023-07-29T00:37:05;59846.88;;;-137.44;100.00
26539;BME280;14205;43.200;24.170;2023-07-29T00:39:34;63414.97;;;-137.44;100.00
26539;BME280;14205;43.200;24.170;2023-07-29T00:41:59;68825.50;;;-137.44;100.00
26539;BME280;14205;43.200;24.170;2023-07-29T00:44:25;69857.03;;;-137.44;100.00
26539;BME280;14205;43.200;24.170;2023-07-29T00:46:54;71663.00;;;-137.44;100.00
26539;BME280;14205;43.200;24.170;2023-07-29T00:49:20;74502.88;;;-137.44;100.00
26539;BME280;14205;43.200;24.170;2023-07-29T00:51:47;74761.16;;;-137.44;100.00
26539;BME280;14205;43.200;24.170;2023-07-29T00:54:13;78637.78;;;-137.44;100.00
26539;BME280;14205;43.200;24.170;2023-07-29T00:56:39;87700.28;;;-137.44;100.00
26539;BME280;14205;43.200;24.170;2023-07-29T00:59:05;86922.56;;;-137.44;100.00
26539;BME280;14205;43.200;24.170;2023-07-29T01:01:31;86663.38;;;-137.44;100.00
26539;BME280;14205;43.200;24.170;2023-07-29T01:03:57;92889.56;;;-137.44;100.00
26539;BME280;14205;43.200;24.170;2023-07-29T01:08:56;92629.91;;;-137.44;100.00
26539;BME280;14205;43.200;24.170;2023-07-29T01:14:16;92889.56;;;-137.44;100.00
26539;BME280;14205;43.200;24.170;2023-07-29T01:16:52;92889.56;;;-137.44;100.00
26539;BME280;14205;43.200;24.170;2023-07-29T01:19:42;89256.25;;;-137.44;100.00
26539;BME280;14205;43.200;24.170;2023-07-29T01:22:10;89515.66;;;-137.44;100.00
26539;BME280;14205;43.200;24.170;2023-07-29T01:24:36;90553.44;;;-137.44;100.00
26539;BME280;14205;43.200;24.170;2023-07-29T01:27:01;89256.25;;;-137.44;100.00
26539;BME280;14205;43.200;24.170;2023-07-29T01:29:29;84331.44;;;-137.44;100.00
26539;BME280;14205;43.200;24.170;2023-07-29T01:31:57;79672.28;;;-137.44;100.00
26539;BME280;14205;43.200;24.170;2023-07-29T01:34:34;81742.25;;;-137.44;100.00
26539;BME280;14205;43.200;24.170;2023-07-29T01:37:02;80189.66;;;-137.44;100.00
26539;BME280;14205;43.200;24.170;2023-07-29T01:39:32;84331.44;;;-137.44;100.00
26539;BME280;14205;43.200;24.170;2023-07-29T01:42:00;86922.56;;;-137.44;100.00
26539;BME280;14205;43.200;24.170;2023-07-29T01:44:26;85885.88;;;-137.44;100.00
26539;BME280;14205;43.200;24.170;2023-07-29T01:46:52;86663.38;;;-137.44;100.00
26539;BME280;14205;43.200;24.170;2023-07-29T01:49:17;85367.66;;;-137.44;100.00
26539;BME280;14205;43.200;24.170;2023-07-29T01:51:43;88218.88;;;-137.44;100.00
26539;BME280;14205;43.200;24.170;2023-07-29T01:54:08;90553.44;;;-137.44;100.00
26539;BME280;14205;43.200;24.170;2023-07-29T01:56:34;92370.28;;;-137.44;100.00
26539;BME280;14205;43.200;24.170;2023-07-29T01:58:59;96526.69;;;-137.44;100.00
26539;BME280;14205;43.200;24.170;2023-07-29T02:01:25;99647.25;;;-137.44;100.00
26539;BME280;14205;43.200;24.170;2023-07-29T02:03:50;102510.25;;;-137.44;100.00
26539;BME280;14205;43.200;24.170;2023-07-29T02:06:20;104072.88;;;-137.44;100.00
26539;BME280;14205;43.200;24.170;2023-07-29T02:08:45;100688.06;;;-137.44;100.00
26539;BME280;14205;43.200;24.170;2023-07-29T02:11:11;105896.81;;;-137.44;100.00
26539;BME280;14205;43.200;24.170;2023-07-29T02:13:36;106939.50;;;-137.44;100.00
26539;BME280;14205;43.200;24.170;2023-07-29T02:16:02;107721.72;;;-137.44;100.00
26539;BME280;14205;43.200;24.170;2023-07-29T02:18:27;104593.91;;;-137.44;100.00
26539;BME280;14205;43.200;24.170;2023-07-29T02:20:52;102510.25;;;-137.44;100.00
26539;BME280;14205;43.200;24.170;2023-07-29T02:23:18;102249.88;;;-137.44;100.00
26539;BME280;14205;43.200;24.170;2023-07-29T02:25:43;99387.09;;;-137.44;100.00
26539;BME280;14205;43.200;24.170;2023-07-29T02:28:09;100688.06;;;-137.44;100.00
26539;BME280;14205;43.200;24.170;2023-07-29T02:30:34;99387.09;;;-137.44;100.00
26539;BME280;14205;43.200;24.170;2023-07-29T02:32:59;100688.06;;;-137.44;100.00
26539;BME280;14205;43.200;24.170;2023-07-29T02:35:26;99647.25;;;-137.44;100.00
26539;BME280;14205;43.200;24.170;2023-07-29T02:37:52;96006.88;;;-137.44;100.00
26539;BME280;14205;43.200;24.170;2023-07-29T02:40:17;96786.63;;;-137.44;100.00
26539;BME280;14205;43.200;24.170;2023-07-29T02:42:43;96266.78;;;-137.44;100.00
26539;BME280;14205;43.200;24.170;2023-07-29T02:45:08;104072.88;;;-137.44;100.00
26539;BME280;14205;43.200;24.170;2023-07-29T02:47:36;106678.78;;;-137.44;100.00
26539;BME280;14205;43.200;24.170;2023-07-29T02:50:02;102510.25;;;-137.44;100.00
26539;BME280;14205;43.200;24.170;2023-07-29T02:52:27;98346.69;;;-137.44;100.00
26539;BME280;14205;43.200;24.170;2023-07-29T02:54:53;96526.69;;;-137.44;100.00
26539;BME280;14205;43.200;24.170;2023-07-29T02:57:18;97566.56;;;-137.44;100.00
26539;BME280;14205;43.200;24.170;2023-07-29T02:59:44;95746.97;;;-137.44;100.00
26539;BME280;14205;43.200;24.170;2023-07-29T03:02:09;92370.28;;;-137.44;100.00
26539;BME280;14205;43.200;24.170;2023-07-29T03:04:34;92110.69;;;-137.44;100.00
26539;BME280;14205;43.200;24.170;2023-07-29T03:07:00;96266.78;;;-137.44;100.00
26539;BME280;14205;43.200;24.170;2023-07-29T03:09:26;95746.97;;;-137.44;100.00
26539;BME280;14205;43.200;24.170;2023-07-29T03:11:51;94188.09;;;-137.44;100.00
26539;BME280;14205;43.200;24.170;2023-07-29T03:14:18;94967.47;;;-137.44;100.00
26539;BME280;14205;43.200;24.170;2023-07-29T03:16:43;92889.56;;;-137.44;100.00
26539;BME280;14205;43.200;24.170;2023-07-29T03:19:08;92110.69;;;-137.44;100.00
26539;BME280;14205;43.200;24.170;2023-07-29T03:21:34;93149.22;;;-137.44;100.00
26539;BME280;14205;43.200;24.170;2023-07-29T03:23:59;95746.97;;;-137.44;100.00
26539;BME280;14205;43.200;24.170;2023-07-29T03:26:25;97566.56;;;-137.44;100.00
26539;BME280;14205;43.200;24.170;2023-07-29T03:28:51;99647.25;;;-137.44;100.00
26539;BME280;14205;43.200;24.170;2023-07-29T03:31:16;98606.75;;;-137.44;100.00
26539;BME280;14205;43.200;24.170;2023-07-29T03:33:41;104072.88;;;-137.44;100.00
26539;BME280;14205;43.200;24.170;2023-07-29T03:36:07;101729.19;;;-137.44;100.00
26539;BME280;14205;43.200;24.170;2023-07-29T03:38:32;101208.59;;;-137.44;100.00
26539;BME280;14205;43.200;24.170;2023-07-29T03:41:00;94447.88;;;-137.44;100.00
26539;BME280;14205;43.200;24.170;2023-07-29T03:43:27;96786.63;;;-137.44;100.00
26539;BME280;14205;43.200;24.170;2023-07-29T03:45:53;103812.38;;;-137.44;100.00
26539;BME280;14205;43.200;24.170;2023-07-29T03:48:18;106418.13;;;-137.44;100.00
26539;BME280;14205;43.200;24.170;2023-07-29T03:50:43;105636.19;;;-137.44;100.00
26539;BME280;14205;43.200;24.170;2023-07-29T03:53:09;103551.91;;;-137.44;100.00
26539;BME280;14205;43.200;24.170;2023-07-29T03:55:35;103291.47;;;-137.44;100.00
26539;BME280;14205;43.200;24.170;2023-07-29T03:58:00;100167.63;;;-137.44;100.00
26539;BME280;14205;43.200;24.170;2023-07-29T04:00:26;98086.63;;;-137.44;100.00
26539;BME280;14205;43.200;24.170;2023-07-29T04:02:52;99126.97;;;-137.44;100.00
26539;BME280;14205;43.200;24.170;2023-07-29T04:05:18;94447.88;;;-137.44;100.00
26539;BME280;14205;43.200;24.170;2023-07-29T04:07:43;97826.59;;;-137.44;100.00
26539;BME280;14205;43.200;24.170;2023-07-29T04:10:09;88737.53;;;-137.44;100.00
26539;BME280;14205;43.200;24.170;2023-07-29T04:12:35;89775.06;;;-137.44;100.00
26539;BME280;14205;43.200;24.170;2023-07-29T04:15:01;87441.03;;;-137.44;100.00
26539;BME280;14205;43.200;24.170;2023-07-29T04:17:26;88996.88;;;-137.44;100.00
26539;BME280;14205;43.200;24.170;2023-07-29T04:19:52;87441.03;;;-137.44;100.00
26539;BME280;14205;43.200;24.170;2023-07-29T04:22:17;88218.88;;;-137.44;100.00
26539;BME280;14205;43.200;24.170;2023-07-29T04:24:43;84072.44;;;-137.44;100.00
26539;BME280;14205;43.200;24.170;2023-07-29T04:27:08;81224.66;;;-137.44;100.00
26539;BME280;14205;43.200;24.170;2023-07-29T04:29:35;85885.88;;;-137.44;100.00
26539;BME280;14205;43.200;24.170;2023-07-29T04:32:01;85885.88;;;-137.44;100.00
26539;BME280;14205;43.200;24.170;2023-07-29T04:34:27;85626.75;;;-137.44;100.00
26539;BME280;14205;43.200;24.170;2023-07-29T04:36:52;85885.88;;;-137.44;100.00
26539;BME280;14205;43.200;24.170;2023-07-29T04:39:18;84072.44;;;-137.44;100.00
26539;BME280;14205;43.200;24.170;2023-07-29T04:41:43;75794.50;;;-137.44;100.00
26539;BME280;14205;43.200;24.170;2023-07-29T04:44:09;70888.91;;;-137.44;100.00
26539;BME280;14205;43.200;24.170;2023-07-29T04:46:36;66763.31;;;-137.44;100.00
26539;BME280;14205;43.200;24.170;2023-07-29T04:49:01;60990.25;;;-137.44;100.00
26539;BME280;14205;43.200;24.170;2023-07-29T04:51:27;64444.88;;;-137.44;100.00
26539;BME280;14205;43.200;24.170;2023-07-29T04:53:53;50843.81;;;-137.44;100.00
26539;BME280;14205;43.200;24.170;2023-07-29T04:56:18;51641.41;;;-137.44;100.00
26539;BME280;14205;43.200;24.170;2023-07-29T04:58:44;56394.91;;;-137.44;100.00
26539;BME280;14205;43.200;24.170;2023-07-29T05:01:09;57238.00;;;-137.44;100.00
26539;BME280;14205;43.200;24.170;2023-07-29T05:03:35;50453.09;;;-137.44;100.00
26539;BME280;14205;43.200;24.170;2023-07-29T05:06:00;50308.81;;;-137.44;100.00
26539;BME280;14205;43.200;24.170;2023-07-29T05:08:26;49012.81;;;-137.44;100.00
26539;BME280;14205;43.200;24.170;2023-07-29T05:10:52;48586.25;;;-137.44;100.00
26539;BME280;14205;43.200;24.170;2023-07-29T05:13:19;47437.03;;;-137.44;100.00
26539;BME280;14205;43.200;24.170;2023-07-29T05:15:47;47863.44;;;-137.44;100.00
26539;BME280;14205;43.200;24.170;2023-07-29T05:18:12;47641.22;;;-137.44;100.00
26539;BME280;14205;43.200;24.170;2023-07-29T05:20:38;47511.09;;;-137.44;100.00
26539;BME280;14205;43.200;24.170;2023-07-29T05:23:03;47423.03;;;-137.44;100.00
26539;BME280;14205;43.200;24.170;2023-07-29T05:25:28;46730.47;;;-137.44;100.00
26539;BME280;14205;43.200;24.170;2023-07-29T05:27:54;46776.50;;;-137.44;100.00
26539;BME280;14205;43.200;24.170;2023-07-29T05:30:19;46898.59;;;-137.44;100.00
26539;BME280;14205;43.200;24.170;2023-07-29T05:32:45;46790.53;;;-137.44;100.00
26539;BME280;14205;43.200;24.170;2023-07-29T05:35:10;46738.47;;;-137.44;100.00
26539;BME280;14205;43.200;24.170;2023-07-29T05:37:38;46698.47;;;-137.44;100.00
26539;BME280;14205;43.200;24.170;2023-07-29T05:40:07;46534.34;;;-137.44;100.00
26539;BME280;14205;43.200;24.170;2023-07-29T05:42:34;46574.38;;;-137.44;100.00
26539;BME280;14205;43.200;24.170;2023-07-29T05:44:59;46488.31;;;-137.44;100.00
26539;BME280;14205;43.200;24.170;2023-07-29T05:47:25;46498.31;;;-137.44;100.00
26539;BME280;14205;43.200;24.170;2023-07-29T05:49:51;46532.34;;;-137.44;100.00
26539;BME280;14205;43.200;24.170;2023-07-29T05:52:16;46476.31;;;-137.44;100.00
26539;BME280;14205;43.200;24.170;2023-07-29T05:54:41;46494.31;;;-137.44;100.00
26539;BME280;14205;43.200;24.170;2023-07-29T05:57:11;46530.34;;;-137.44;100.00
26539;BME280;14205;43.200;24.170;2023-07-29T05:59:37;46494.31;;;-137.44;100.00
26539;BME280;14205;43.200;24.170;2023-07-29T06:02:02;46480.31;;;-137.44;100.00
26539;BME280;14205;43.200;24.170;2023-07-29T06:04:28;46574.38;;;-137.44;100.00
26539;BME280;14205;43.200;24.170;2023-07-29T06:06:54;46548.34;;;-137.44;100.00
26539;BME280;14205;43.200;24.170;2023-07-29T06:09:21;46498.31;;;-137.44;100.00
26539;BME280;14205;43.200;24.170;2023-07-29T06:11:46;46598.38;;;-137.44;100.00
26539;BME280;14205;43.200;24.170;2023-07-29T06:14:12;46654.44;;;-137.44;100.00
26539;BME280;14205;43.200;24.170;2023-07-29T06:16:37;46654.44;;;-137.44;100.00
26539;BME280;14205;43.200;24.170;2023-07-29T06:19:02;46780.50;;;-137.44;97.82
26539;BME280;14205;43.200;24.170;2023-07-29T06:21:28;46874.59;;;-137.44;95.32
26539;BME280;14205;43.200;24.170;2023-07-29T06:23:53;46742.50;;;-137.44;96.63
26539;BME280;14205;43.200;24.170;2023-07-29T06:26:19;46760.50;;;-137.44;96.13
26539;BME280;14205;43.200;24.170;2023-07-29T06:28:44;47132.78;;;-137.44;86.91
26539;BME280;14205;43.200;24.170;2023-07-29T06:31:09;47130.78;;;-137.44;86.32
26539;BME280;14205;43.200;24.170;2023-07-29T06:33:35;47232.88;;;-137.44;84.77
26539;BME280;14205;43.200;24.170;2023-07-29T06:36:00;47318.94;;;-137.44;83.07
26539;BME280;14205;43.200;24.170;2023-07-29T06:38:26;47194.84;;;-137.44;84.69
26539;BME280;14205;43.200;24.170;2023-07-29T06:40:51;47244.88;;;-137.44;83.00
26539;BME280;14205;43.200;24.170;2023-07-29T06:43:17;47102.75;;;-137.44;84.65
26539;BME280;14205;43.200;24.170;2023-07-29T06:45:43;47034.69;;;-137.44;83.89
26539;BME280;14205;43.200;24.170;2023-07-29T06:48:08;47567.16;;;-137.44;74.81
26539;BME280;14205;43.200;24.170;2023-07-29T06:50:34;47583.16;;;-137.44;73.77
26539;BME280;14205;43.200;24.170;2023-07-29T06:52:59;47629.22;;;-137.44;73.05
26539;BME280;14205;43.200;24.170;2023-07-29T06:55:24;47641.22;;;-137.44;72.17
26539;BME280;14205;43.200;24.170;2023-07-29T06:57:50;47561.16;;;-137.44;73.48
26539;BME280;14205;43.200;24.170;2023-07-29T07:00:15;47551.16;;;-137.44;72.04
26539;BME280;14205;43.200;24.170;2023-07-29T07:02:41;47783.38;;;-137.44;68.44
26539;BME280;14205;43.200;24.170;2023-07-29T07:05:07;47647.22;;;-137.44;70.96
26539;BME280;14205;43.200;24.170;2023-07-29T07:07:32;47350.97;;;-137.44;74.79
26539;BME280;14205;43.200;24.170;2023-07-29T07:09:58;47459.06;;;-137.44;71.84
26539;BME280;14205;43.200;24.170;2023-07-29T07:12:23;47597.19;;;-137.44;68.53
26539;BME280;14205;43.200;24.170;2023-07-29T07:14:49;47511.09;;;-137.44;68.99
26539;BME280;14205;43.200;24.170;2023-07-29T07:17:14;47971.56;;;-137.44;64.39
26539;BME280;14205;43.200;24.170;2023-07-29T07:19:40;47879.47;;;-137.44;64.34
26539;BME280;14205;43.200;24.170;2023-07-29T07:22:05;48101.69;;;-137.44;60.01
26539;BME280;14205;43.200;24.170;2023-07-29T07:24:30;48263.88;;;-137.44;57.21
26539;BME280;14205;43.200;24.170;2023-07-29T07:26:56;48007.59;;;-137.44;60.07
26539;BME280;14205;43.200;24.170;2023-07-29T07:29:22;48432.06;;;-137.44;55.00
26539;BME280;14205;43.200;24.170;2023-07-29T07:31:54;48333.97;;;-137.44;56.30
26539;BME280;14205;43.200;24.170;2023-07-29T07:34:20;48474.13;;;-137.44;53.78
26539;BME280;14205;43.200;24.170;2023-07-29T07:36:46;48924.69;;;-137.44;48.01
26539;BME280;14205;43.200;24.170;2023-07-29T07:39:12;48848.59;;;-137.44;48.56
26539;BME280;14205;43.200;24.170;2023-07-29T07:41:37;48860.63;;;-137.44;47.41
26539;BME280;14205;43.200;24.170;2023-07-29T07:44:03;48634.31;;;-137.44;49.55
26539;BME280;14205;43.200;24.170;2023-07-29T07:46:28;49066.88;;;-137.44;45.08
26539;BME280;14205;43.200;24.170;2023-07-29T07:48:54;49016.81;;;-137.44;45.52
26539;BME280;14205;43.200;24.170;2023-07-29T07:51:19;48944.72;;;-137.44;46.17
26539;BME280;14205;43.200;24.170;2023-07-29T07:53:45;48972.75;;;-137.44;45.61
26539;BME280;14205;43.200;24.170;2023-07-29T07:56:10;48892.66;;;-137.44;46.29
26539;BME280;14205;43.200;24.170;2023-07-29T07:58:36;49116.97;;;-137.44;43.71
26539;BME280;14205;43.200;24.170;2023-07-29T08:01:05;49064.88;;;-137.44;43.18
26539;BME280;14205;43.200;24.170;2023-07-29T08:03:31;49183.06;;;-137.44;42.36
26539;BME280;14205;43.200;24.170;2023-07-29T08:05:57;49265.16;;;-137.44;42.03
26539;BME280;14205;43.200;24.170;2023-07-29T08:08:23;49465.47;;;-137.44;41.04
26539;BME280;14205;43.200;24.170;2023-07-29T08:10:49;48936.72;;;-137.44;44.87
26539;BME280;14205;43.200;24.170;2023-07-29T08:13:14;49445.44;;;-137.44;40.88
26539;BME280;14205;43.200;24.170;2023-07-29T08:15:40;49126.97;;;-137.44;43.32
26539;BME280;14205;43.200;24.170;2023-07-29T08:18:06;49453.44;;;-137.44;40.11
26539;BME280;14205;43.200;24.170;2023-07-29T08:20:32;49527.56;;;-137.44;39.92
26539;BME280;14205;43.200;24.170;2023-07-29T08:22:58;48912.69;;;-137.44;43.59
26539;BME280;14205;43.200;24.170;2023-07-29T08:25:23;49038.84;;;-137.44;41.94
26539;BME280;14205;43.200;24.170;2023-07-29T08:27:49;49533.56;;;-137.44;38.91
26539;BME280;14205;43.200;24.170;2023-07-29T08:30:14;49467.47;;;-137.44;39.21
26539;BME280;14205;43.200;24.170;2023-07-29T08:32:41;48944.72;;;-137.44;42.13
26539;BME280;14205;43.200;24.170;2023-07-29T08:35:07;49976.25;;;-137.44;36.18
26539;BME280;14205;43.200;24.170;2023-07-29T08:37:32;50062.41;;;-137.44;35.96
26539;BME280;14205;43.200;24.170;2023-07-29T08:39:58;49573.63;;;-137.44;37.88
26539;BME280;14205;43.200;24.170;2023-07-29T08:42:31;50230.69;;;-137.44;34.06
26539;BME280;14205;43.200;24.170;2023-07-29T08:44:56;50314.84;;;-137.44;33.71
26539;BME280;14205;43.200;24.170;2023-07-29T08:47:26;49872.09;;;-137.44;35.56
26539;BME280;14205;43.200;24.170;2023-07-29T08:49:52;50104.47;;;-137.44;34.40
26539;BME280;14205;43.200;24.170;2023-07-29T08:52:19;50144.53;;;-137.44;33.79
26539;BME280;14205;43.200;24.170;2023-07-29T08:54:46;49689.81;;;-137.44;35.70
26539;BME280;14205;43.200;24.170;2023-07-29T08:57:11;49631.72;;;-137.44;35.81
26539;BME280;14205;43.200;24.170;2023-07-29T08:59:38;50044.38;;;-137.44;34.15
26539;BME280;14205;43.200;24.170;2023-07-29T09:02:04;50030.34;;;-137.44;33.89
26539;BME280;14205;43.200;24.170;2023-07-29T09:04:29;50090.47;;;-137.44;33.90
26539;BME280;14205;43.200;24.170;2023-07-29T09:06:56;50182.59;;;-137.44;32.75
26539;BME280;14205;43.200;24.170;2023-07-29T09:09:21;50232.69;;;-137.44;32.93
26539;BME280;14205;43.200;24.170;2023-07-29T09:11:47;50004.31;;;-137.44;34.04
26539;BME280;14205;43.200;24.170;2023-07-29T09:14:13;50298.81;;;-137.44;32.28
26539;BME280;14205;43.200;24.170;2023-07-29T09:16:39;49771.94;;;-137.44;34.40
26539;BME280;14205;43.200;24.170;2023-07-29T09:19:05;50220.69;;;-137.44;32.05
26539;BME280;14205;43.200;24.170;2023-07-29T09:21:31;50274.78;;;-137.44;32.25
26539;BME280;14205;43.200;24.170;2023-07-29T09:23:57;50403.00;;;-137.44;31.27
26539;BME280;14205;43.200;24.170;2023-07-29T09:26:28;50465.09;;;-137.44;30.99
26539;BME280;14205;43.200;24.170;2023-07-29T09:28:58;50230.69;;;-137.44;32.37
26539;BME280;14205;43.200;24.170;2023-07-29T09:31:25;50431.03;;;-137.44;31.23
26539;BME280;14205;43.200;24.170;2023-07-29T09:34:03;50575.31;;;-137.44;30.80
26539;BME280;14205;43.200;24.170;2023-07-29T09:36:31;50501.16;;;-137.44;30.85
26539;BME280;14205;43.200;24.170;2023-07-29T09:38:57;50174.59;;;-137.44;31.63
26539;BME280;14205;43.200;24.170;2023-07-29T09:41:27;50503.16;;;-137.44;29.89
26539;BME280;14205;43.200;24.170;2023-07-29T09:44:03;50419.03;;;-137.44;30.07
26539;BME280;14205;43.200;24.170;2023-07-29T09:46:34;50388.97;;;-137.44;30.17
26539;BME280;14205;43.200;24.170;2023-07-29T09:49:02;50469.13;;;-137.44;29.39
26539;BME280;14205;43.200;24.170;2023-07-29T09:51:28;50589.31;;;-137.44;28.68
26539;BME280;14205;43.200;24.170;2023-07-29T09:53:53;50635.41;;;-137.44;29.09
26539;BME280;14205;43.200;24.170;2023-07-29T09:56:25;50206.66;;;-137.44;30.87
26539;BME280;14205;43.200;24.170;2023-07-29T09:58:51;50378.94;;;-137.44;30.34
26539;BME280;14205;43.200;24.170;2023-07-29T10:01:17;50503.16;;;-137.44;29.52
26539;BME280;14205;43.200;24.170;2023-07-29T10:03:44;50583.31;;;-137.44;29.92
26539;BME280;14205;43.200;24.170;2023-07-29T10:06:10;50783.69;;;-137.44;29.68
26539;BME280;14205;43.200;24.170;2023-07-29T10:08:36;50386.97;;;-137.44;30.91
26539;BME280;14205;43.200;24.170;2023-07-29T10:11:06;50356.91;;;-137.44;31.37
26539;BME280;14205;43.200;24.170;2023-07-29T10:13:32;50485.13;;;-137.44;30.33
26539;BME280;14205;43.200;24.170;2023-07-29T10:15:59;50843.81;;;-137.44;28.99
26539;BME280;14205;43.200;24.170;2023-07-29T10:18:27;50535.22;;;-137.44;29.72
26539;BME280;14205;43.200;24.170;2023-07-29T10:20:54;50827.78;;;-137.44;28.59
26539;BME280;14205;43.200;24.170;2023-07-29T10:23:22;50507.19;;;-137.44;29.78
26539;BME280;14205;43.200;24.170;2023-07-29T10:25:56;50713.56;;;-137.44;28.71
26539;BME280;14205;43.200;24.170;2023-07-29T10:28:25;50907.94;;;-137.44;28.26
26539;BME280;14205;43.200;24.170;2023-07-29T10:30:52;50681.50;;;-137.44;29.11
26539;BME280;14205;43.200;24.170;2023-07-29T10:33:17;50899.91;;;-137.44;28.74
26539;BME280;14205;43.200;24.170;2023-07-29T10:35:43;50970.03;;;-137.44;28.72
26539;BME280;14205;43.200;24.170;2023-07-29T10:38:09;50815.75;;;-137.44;28.74
26539;BME280;14205;43.200;24.170;2023-07-29T10:40:51;50723.56;;;-137.44;28.28
26539;BME280;14205;43.200;24.170;2023-07-29T10:45:50;50507.19;;;-137.44;28.82
26539;BME280;14205;43.200;24.170;2023-07-29T10:56:34;50507.19;;;-137.44;28.19
26539;BME280;14205;43.200;24.170;2023-07-29T11:01:58;50623.41;;;-137.44;27.57
26539;BME280;14205;43.200;24.170;2023-07-29T11:04:26;50615.38;;;-137.44;27.65
26539;BME280;14205;43.200;24.170;2023-07-29T11:20:06;50607.38;;;-137.44;27.11
26539;BME280;14205;43.200;24.170;2023-07-29T11:22:33;50344.88;;;-137.44;27.67
26539;BME280;14205;43.200;24.170;2023-07-29T11:24:59;50747.63;;;-137.44;26.33
26539;BME280;14205;43.200;24.170;2023-07-29T11:27:24;50823.75;;;-137.44;26.14
26539;BME280;14205;43.200;24.170;2023-07-29T11:29:50;50855.81;;;-137.44;25.63
26539;BME280;14205;43.200;24.170;2023-07-29T11:32:16;50663.47;;;-137.44;26.83
26539;BME280;14205;43.200;24.170;2023-07-29T11:34:42;50405.00;;;-137.44;27.35
26539;BME280;14205;43.200;24.170;2023-07-29T11:37:10;50342.88;;;-137.44;27.25
26539;BME280;14205;43.200;24.170;2023-07-29T11:39:42;50703.53;;;-137.44;26.55
26539;BME280;14205;43.200;24.170;2023-07-29T11:42:11;50461.09;;;-137.44;27.01
26539;BME280;14205;43.200;24.170;2023-07-29T11:44:37;50230.69;;;-137.44;27.23
26539;BME280;14205;43.200;24.170;2023-07-29T11:47:10;50553.25;;;-137.44;25.81
26539;BME280;14205;43.200;24.170;2023-07-29T11:49:37;50563.28;;;-137.44;25.13
26539;BME280;14205;43.200;24.170;2023-07-29T11:52:03;50563.28;;;-137.44;26.05
26539;BME280;14205;43.200;24.170;2023-07-29T11:54:29;50240.72;;;-137.44;26.13
26539;BME280;14205;43.200;24.170;2023-07-29T11:56:55;50603.34;;;-137.44;24.81
26539;BME280;14205;43.200;24.170;2023-07-29T11:59:21;50687.50;;;-137.44;24.25
26539;BME280;14205;43.200;24.170;2023-07-29T12:01:46;50833.78;;;-137.44;24.80
26539;BME280;14205;43.200;24.170;2023-07-29T12:04:12;50535.22;;;-137.44;25.92
26539;BME280;14205;43.200;24.170;2023-07-29T12:06:38;50847.81;;;-137.44;24.45
26539;BME280;14205;43.200;24.170;2023-07-29T12:09:04;50715.56;;;-137.44;23.64
26539;BME280;14205;43.200;24.170;2023-07-29T12:11:30;50348.91;;;-137.44;24.82
26539;BME280;14205;43.200;24.170;2023-07-29T12:13:55;50771.66;;;-137.44;24.69
26539;BME280;14205;43.200;24.170;2023-07-29T12:16:21;50443.06;;;-137.44;25.16
26539;BME280;14205;43.200;24.170;2023-07-29T12:18:46;50386.97;;;-137.44;26.14
26539;BME280;14205;43.200;24.170;2023-07-29T12:21:14;50583.31;;;-137.44;24.97
26539;BME280;14205;43.200;24.170;2023-07-29T12:23:40;50348.91;;;-137.44;25.26
26539;BME280;14205;43.200;24.170;2023-07-29T12:26:05;50645.44;;;-137.44;23.67
26539;BME280;14205;43.200;24.170;2023-07-29T12:28:31;50443.06;;;-137.44;24.14
26539;BME280;14205;43.200;24.170;2023-07-29T12:30:59;50879.88;;;-137.44;23.66
26539;BME280;14205;43.200;24.170;2023-07-29T12:33:32;50679.50;;;-137.44;24.31
26539;BME280;14205;43.200;24.170;2023-07-29T12:35:58;50863.84;;;-137.44;22.62
26539;BME280;14205;43.200;24.170;2023-07-29T12:38:26;51064.22;;;-137.44;22.49
26539;BME280;14205;43.200;24.170;2023-07-29T12:40:51;50847.81;;;-137.44;23.18
26539;BME280;14205;43.200;24.170;2023-07-29T12:43:17;51052.22;;;-137.44;22.83
26539;BME280;14205;43.200;24.170;2023-07-29T12:45:43;50972.06;;;-137.44;22.48
26539;BME280;14205;43.200;24.170;2023-07-29T12:48:09;51144.38;;;-137.44;21.94
26539;BME280;14205;43.200;24.170;2023-07-29T12:50:35;51368.84;;;-137.44;21.55
26539;BME280;14205;43.200;24.170;2023-07-29T12:53:01;50988.09;;;-137.44;22.38